[source: ADDS]
METAR
EDVE 171750Z 34005KT 290V020 CAVOK 23/07 Q1013

TAF EDVE 171700Z 1718/1721 VRB03KT CAVOK EDDV 171750Z 33007KT 270V360 CAVOK 21/10 Q1013 NOSIG

TAF EDDV 171700Z 1718/1818 VRB03KT CAVOK PROB30 TEMPO 1801/1804 4500 BCFG BECMG 1806/1809 17007KT BECMG 1815/1818 25003KT PROB30 TEMPO 1816/1818 26012KT SHRA BKN030CB ETHS 171720Z 01006KT 9999 FEW050 22/09 Q1013 BLU+

TAF AMD ETHS 171517Z 1714/1723 34008KT 9999 NSW SCT 030 CANCEL 1500 ETHC 171720Z 26004KT 9999 FEW055 23/09 Q1013 BLU+

TAF AMD ETHC 171555Z 1714/1723 31005KT 9999 NSW FEW045 CANCEL 1630 EDVK 171750Z 29005KT 9999 SCT035 16/12 Q1014

TAF EDVK 171700Z 1718/1803 32006KT 9999 BKN030 BECMG 1719/1721 VRB03KT
TAF
TAF EDVE 171700Z 1718/1721 VRB03KT CAVOK

TAF EDDV 171700Z 1718/1818 VRB03KT CAVOK PROB30 TEMPO 1801/1804 4500 BCFG BECMG 1806/1809 17007KT BECMG 1815/1818 25003KT PROB30 TEMPO 1816/1818 26012KT SHRA BKN030CB

TAF AMD ETHS 171517Z 1714/1723 34008KT 9999 NSW SCT 030 CANCEL 1500

TAF AMD ETHC 171555Z 1714/1723 31005KT 9999 NSW FEW045 CANCEL 1630

TAF EDVK 171700Z 1718/1803 32006KT 9999 BKN030 BECMG 1719/1721 VRB03KT

SR / SS: 03:16 / 19:31 UTC (EDVE 2019-07-17)
Hallo Peter, willkommen im Verein und viel Spaß bei der Ausbildung! +++ Falk hat sich freigeflogen! Gratulation und weiterhin Happy Landings! +++ Herzlich Willkommen im Verein Christoph und viel Erfolg für deine weitere Ausbildung! +++ Und wieder ein neue Pilot. Wir beglückwünschen Max zur erfolgreichen PPL-Prüfung und wünschen Always Happy Landings! +++ Tibor hat die PPL-Prüfung bestanden. Gratulation und Always Happy Landings! +++ Mathias und Stefan haben die theoretische Prüfung bestanden! Herzlichen Glückwunsch und weiterhin viel Erfolg für die restliche Ausbildung! +++ Herzlich Willkommen in der FFG Jan! +++ Miro hat seine Praktische Prüfung bestanden! Herzlichen Glückwunsch und Always Happy Landings! +++ Stefan hat sich freigeflogen. Herzlichen Glückwunsch und weiterhin always happy landings! +++ David und Christian haben die Nachtflugberechtigung erhalten. Herzlichen Glückwunsch und viel Spaß beim Erleben der Faszination "Nachtflug"! +++ Hallo Florian! Willkommen im Verein und viel Erfolg für deine Ausbildung!

wenig -> mittel -> viel

Professionelle Piloten arbeiten mit Checkliste
Ausdrucken und abarbeiten! Vorbereitete Links helfen bei der Beschaffung der notwendigen Informationen.

Weiterlesen ...

 Zugang zur DFS. Auf dem FFG-Account sind alle erforderlichen Daten unserer Maschinen hinterlegt. Jedes Mitglied hat hier volle Rechte! Zugangsdaten gibt es im Internen Bereich.

Hier gibt es die AIP mit allen erforderlichen Karten die im Abo der FFG liegen zum Download für unsere Mitglieder.

Letztes NOTAM EDVE
von 29.08.2019 0800Z bis 29.08.2019 1200Z
MAGDEBURG VOR/DME MAG 110.45MHZ/CH41Y ON MAINT, DO NOT USE, FALSE INDICATIONS POSSIBLE.

Letztes NOTAM EDCB
von 15.07.2019 0600Z bis 20.07.2019 1800Z
DAILY 0600-1800
SPECIAL ACTIVITY AREA ESTABLISHED FOR AEROBATIC FLTS 2NM RADIUS CENTERED ON 514447N 0111352E, BALLENSTEDT.
GND- [more]


Letztes NOTAM EDBC
von 29.08.2019 0800Z bis 29.08.2019 1200Z
MAGDEBURG VOR/DME MAG 110.45MHZ/CH41Y ON MAINT, DO NOT USE, FALSE INDICATIONS POSSIBLE.

Letztes NOTAM EDVM
von 25.06.2019 0700Z bis PERM
SAFETYZONE FOR PJE ESTABLISHED ON APRON 1, TWY D BTN TWY G AND B AND TWY B SOUTH TWY D. DURING PJE ACT START UP OF ENGINES NOT PERMITTED. ACTUAL [more]

Letztes NOTAM EDOV
von 16.07.2019 0734Z bis 19.07.2019 1700Z
0600-1700
THR RWY 08 DISPLACED 1000M INWARDS. THR RWY 26 DISPLACED 1000M INWARDS.

Letztes NOTAM EDDV
von 25.07.2019 0600Z bis 25.07.2019 0900Z
AVGAS STATION FOR GENERAL AVIATION OUT OF SERVICE.

Letztes NOTAM EDVK
von 15.07.2019 1113Z bis PERM
PPR FOR VFR TRAINING FLT, ACFT MTOM MORE 15T CONTACT +49(0)56742153170.

          aerodata150     Radio38